Dana Trader — 5VCX8 — position and weather

sailwx.info

Track history (hours):
 
Tides and Currents Weather Stations Pressure Air Temp Water Temp Dewpoint Dewpoint Depression Visibility Wind Speed Wind Dir Waves Ship Positions

Dana Trader

Last reported at 2018-Feb-10 23:29 UTC. Time now 2018-Feb-22 03:04 UTC.
Position N 32°57' E 033°49'.
Warning: this ship's position is 11 days out of date.

; draft 5.4 m.

MMSI: 671515000.

Date/timePositionNaut miles runAvg speedWind from/ knotsBaromVisibWave heightAir tempDewpointWater temp
2018-Feb-10 23:29N 32°57' E 033°49'5 9.2
2018-Feb-10 22:57N 32°54' E 033°45'4 9.2
2018-Feb-10 22:30N 32°51' E 033°41'6 8.8
2018-Feb-10 21:48N 32°46' E 033°36'29 8.2
2018-Feb-10 18:20N 32°25' E 033°14'3 8.2
2018-Feb-10 17:59N 32°23' E 033°12'5 8.3
2018-Feb-10 17:23N 32°19' E 033°08'4 8.5
2018-Feb-10 16:54N 32°16' E 033°05'3 8.5
2018-Feb-10 16:30N 32°13' E 033°02'5 8.6
2018-Feb-10 15:58N 32°09' E 032°59'4 8.8
2018-Feb-10 15:30N 32°06' E 032°56'59 8.1
2018-Feb-10 08:12N 31°16' E 032°19'2 6.7
2018-Feb-10 07:55N 31°15' E 032°18'1 0.5
2018-Feb-10 06:47N 31°14' E 032°18'0 0.0
2018-Feb-10 06:29N 31°14' E 032°18'0 0.0
2018-Feb-10 05:59N 31°14' E 032°18'0 0.0
2018-Feb-10 05:26N 31°14' E 032°18'0 0.0
2018-Feb-10 04:59N 31°14' E 032°18'0 0.0
2018-Feb-10 04:29N 31°14' E 032°18'0 0.0
2018-Feb-10 03:56N 31°14' E 032°18'0 0.0
2018-Feb-10 03:17N 31°14' E 032°18'0 0.0
2018-Feb-10 02:59N 31°14' E 032°18'7 0.1
2018-Feb-08 01:28N 31°21' E 032°20'0 0.0
2018-Feb-08 00:58N 31°21' E 032°20'0 0.0
2018-Feb-08 00:28N 31°21' E 032°20'0 0.0
2018-Feb-07 23:58N 31°21' E 032°20'0 0.0
2018-Feb-07 23:31N 31°21' E 032°20'0 0.0
2018-Feb-07 23:01N 31°21' E 032°20'0 0.0
2018-Feb-07 22:31N 31°21' E 032°20'0 0.0
2018-Feb-07 22:00N 31°21' E 032°20'0 0.0
2018-Feb-07 21:30N 31°21' E 032°20'0 0.0
2018-Feb-07 09:30N 31°21' E 032°20'0 0.0
2018-Feb-07 09:00N 31°21' E 032°20'0 0.0
2018-Feb-07 08:21N 31°21' E 032°20'0 0.0
2018-Feb-07 08:00N 31°21' E 032°20'0 0.0
2018-Feb-07 06:15N 31°21' E 032°20'0 0.0
2018-Feb-07 06:00N 31°21' E 032°20'0 0.0
2018-Feb-07 05:30N 31°21' E 032°20'0 0.0
2018-Feb-07 04:18N 31°21' E 032°20'0 0.0
2018-Feb-07 04:00N 31°21' E 032°20'0 0.0
2018-Feb-07 03:30N 31°21' E 032°20'0 0.0
2018-Feb-07 02:48N 31°21' E 032°20'0 0.0
2018-Feb-07 02:30N 31°21' E 032°20'0 0.1
2018-Feb-07 02:00N 31°21' E 032°20'0 0.0
2018-Feb-07 01:30N 31°21' E 032°20'0 0.0
2018-Feb-06 19:33N 31°21' E 032°20'0 0.0
2018-Feb-06 19:30N 31°21' E 032°20'0 0.0
2018-Feb-06 19:00N 31°21' E 032°20'0 0.0
2018-Feb-06 16:39N 31°21' E 032°20'0 0.0
2018-Feb-06 16:15N 31°21' E 032°20'0 0.0
2018-Feb-06 16:00N 31°21' E 032°20'0 0.0
2018-Feb-06 15:27N 31°21' E 032°20'45 1.4
2018-Feb-05 06:57N 31°57' E 032°50'6 9.6
2018-Feb-05 06:20N 32°02' E 032°54'21 9.9
2018-Feb-05 04:09N 32°20' E 033°09'210.0
2018-Feb-05 03:58N 32°21' E 033°10'5 9.9
2018-Feb-05 03:30N 32°25' E 033°13'5 9.7
2018-Feb-05 03:00N 32°28' E 033°17'510.0
2018-Feb-05 02:28N 32°32' E 033°22'6 9.8
2018-Feb-05 01:54N 32°36' E 033°27'6 9.9
2018-Feb-05 01:16N 32°40' E 033°32'16 9.7
2018-Feb-04 23:38N 32°52' E 033°45'1 9.1
2018-Feb-04 23:30N 32°53' E 033°46'5 9.0
2018-Feb-04 22:58N 32°57' E 033°50'4 9.1
2018-Feb-04 22:30N 32°60' E 033°53'5 9.3
2018-Feb-04 21:57N 33°04' E 033°57'4 9.6
2018-Feb-04 21:30N 33°07' E 034°00'5 9.6
2018-Feb-04 21:00N 33°10' E 034°04'11 9.8
2018-Feb-04 19:53N 33°18' E 034°13'4 9.6
2018-Feb-04 19:30N 33°21' E 034°17'39 9.7
2018-Feb-04 15:31N 33°48' E 034°49'510.1
2018-Feb-04 14:59N 33°53' E 034°52'5 9.5
2018-Feb-04 14:27N 33°56' E 034°57'4 9.2
2018-Feb-04 14:00N 33°59' E 035°00'  
Track history (hours):
 
Tides and Currents Weather Stations Pressure Air Temp Water Temp Dewpoint Dewpoint Depression Visibility Wind Speed Wind Dir Waves Ship Positions

Dana Trader

Last reported at 2018-Feb-10 23:29 UTC. Time now 2018-Feb-22 03:04 UTC.
Position N 32°57' E 033°49'.
Warning: this ship's position is 11 days out of date.

; draft 5.4 m.

MMSI: 671515000.

Date/timePositionNaut miles runAvg speedWind from/ knotsBaromVisibWave heightAir tempDewpointWater temp
2018-Feb-10 23:29N 32°57' E 033°49'5 9.2
2018-Feb-10 22:57N 32°54' E 033°45'4 9.2
2018-Feb-10 22:30N 32°51' E 033°41'6 8.8
2018-Feb-10 21:48N 32°46' E 033°36'29 8.2
2018-Feb-10 18:20N 32°25' E 033°14'3 8.2
2018-Feb-10 17:59N 32°23' E 033°12'5 8.3
2018-Feb-10 17:23N 32°19' E 033°08'4 8.5
2018-Feb-10 16:54N 32°16' E 033°05'3 8.5
2018-Feb-10 16:30N 32°13' E 033°02'5 8.6
2018-Feb-10 15:58N 32°09' E 032°59'4 8.8
2018-Feb-10 15:30N 32°06' E 032°56'59 8.1
2018-Feb-10 08:12N 31°16' E 032°19'2 6.7
2018-Feb-10 07:55N 31°15' E 032°18'1 0.5
2018-Feb-10 06:47N 31°14' E 032°18'0 0.0
2018-Feb-10 06:29N 31°14' E 032°18'0 0.0
2018-Feb-10 05:59N 31°14' E 032°18'0 0.0
2018-Feb-10 05:26N 31°14' E 032°18'0 0.0
2018-Feb-10 04:59N 31°14' E 032°18'0 0.0
2018-Feb-10 04:29N 31°14' E 032°18'0 0.0
2018-Feb-10 03:56N 31°14' E 032°18'0 0.0
2018-Feb-10 03:17N 31°14' E 032°18'0 0.0
2018-Feb-10 02:59N 31°14' E 032°18'7 0.1
2018-Feb-08 01:28N 31°21' E 032°20'0 0.0
2018-Feb-08 00:58N 31°21' E 032°20'0 0.0
2018-Feb-08 00:28N 31°21' E 032°20'0 0.0
2018-Feb-07 23:58N 31°21' E 032°20'0 0.0
2018-Feb-07 23:31N 31°21' E 032°20'0 0.0
2018-Feb-07 23:01N 31°21' E 032°20'0 0.0
2018-Feb-07 22:31N 31°21' E 032°20'0 0.0
2018-Feb-07 22:00N 31°21' E 032°20'0 0.0
2018-Feb-07 21:30N 31°21' E 032°20'0 0.0
2018-Feb-07 09:30N 31°21' E 032°20'0 0.0
2018-Feb-07 09:00N 31°21' E 032°20'0 0.0
2018-Feb-07 08:21N 31°21' E 032°20'0 0.0
2018-Feb-07 08:00N 31°21' E 032°20'0 0.0
2018-Feb-07 06:15N 31°21' E 032°20'0 0.0
2018-Feb-07 06:00N 31°21' E 032°20'0 0.0
2018-Feb-07 05:30N 31°21' E 032°20'0 0.0
2018-Feb-07 04:18N 31°21' E 032°20'0 0.0
2018-Feb-07 04:00N 31°21' E 032°20'0 0.0
2018-Feb-07 03:30N 31°21' E 032°20'0 0.0
2018-Feb-07 02:48N 31°21' E 032°20'0 0.0
2018-Feb-07 02:30N 31°21' E 032°20'0 0.1
2018-Feb-07 02:00N 31°21' E 032°20'0 0.0
2018-Feb-07 01:30N 31°21' E 032°20'0 0.0
2018-Feb-06 19:33N 31°21' E 032°20'0 0.0
2018-Feb-06 19:30N 31°21' E 032°20'0 0.0
2018-Feb-06 19:00N 31°21' E 032°20'0 0.0
2018-Feb-06 16:39N 31°21' E 032°20'0 0.0
2018-Feb-06 16:15N 31°21' E 032°20'0 0.0
2018-Feb-06 16:00N 31°21' E 032°20'0 0.0
2018-Feb-06 15:27N 31°21' E 032°20'45 1.4
2018-Feb-05 06:57N 31°57' E 032°50'6 9.6
2018-Feb-05 06:20N 32°02' E 032°54'21 9.9
2018-Feb-05 04:09N 32°20' E 033°09'210.0
2018-Feb-05 03:58N 32°21' E 033°10'5 9.9
2018-Feb-05 03:30N 32°25' E 033°13'5 9.7
2018-Feb-05 03:00N 32°28' E 033°17'510.0
2018-Feb-05 02:28N 32°32' E 033°22'6 9.8
2018-Feb-05 01:54N 32°36' E 033°27'6 9.9
2018-Feb-05 01:16N 32°40' E 033°32'16 9.7
2018-Feb-04 23:38N 32°52' E 033°45'1 9.1
2018-Feb-04 23:30N 32°53' E 033°46'5 9.0
2018-Feb-04 22:58N 32°57' E 033°50'4 9.1
2018-Feb-04 22:30N 32°60' E 033°53'5 9.3
2018-Feb-04 21:57N 33°04' E 033°57'4 9.6
2018-Feb-04 21:30N 33°07' E 034°00'5 9.6
2018-Feb-04 21:00N 33°10' E 034°04'11 9.8
2018-Feb-04 19:53N 33°18' E 034°13'4 9.6
2018-Feb-04 19:30N 33°21' E 034°17'39 9.7
2018-Feb-04 15:31N 33°48' E 034°49'510.1
2018-Feb-04 14:59N 33°53' E 034°52'5 9.5
2018-Feb-04 14:27N 33°56' E 034°57'4 9.2
2018-Feb-04 14:00N 33°59' E 035°00'  

Dump ship's entire track history